Fort Leonard Wood, Missouri
Current Conditions -  °F | °C
As of 11:18 AM on Friday 24 Oct 2014 (Local Time) from KTBN Reporting Station
Broken Clouds Broken Clouds  
Wind Chill: 63°   Ceiling: 2000
Heat Index: 63°   Visibility: 10mi
Dew Point: 57°   Wind: 1mph
Humidity: 82%   Direction: NA
Pressure: 30.14"   Gusts: NA
Location:  37.77°N, 92.12°W
Report Text: KTBN 241618Z AUTO VRB01KT 10SM SCT012 BKN020 17/14 A3014 RMK AO2 CIG 011V020 BKN V OVC
Loading
Personal Weather Stations






























Interactive Weather Map New forecast layout! Learn more

10-Day Weather Forecast

Advertisements
Track Severe Weather on mobile